sensor_id;sensor_type;location;lat;lon;timestamp;P1;durP1;ratioP1;P2;durP2;ratioP2
14060;SDS011;7105;43.616;1.434;2023-03-01T00:02:19;11.93;;;9.60;;
14060;SDS011;7105;43.616;1.434;2023-03-01T00:04:44;13.27;;;9.50;;
14060;SDS011;7105;43.616;1.434;2023-03-01T00:07:10;16.43;;;10.93;;
14060;SDS011;7105;43.616;1.434;2023-03-01T00:09:36;13.43;;;9.13;;
14060;SDS011;7105;43.616;1.434;2023-03-01T00:12:02;13.90;;;10.03;;
14060;SDS011;7105;43.616;1.434;2023-03-01T00:14:29;15.93;;;10.00;;
14060;SDS011;7105;43.616;1.434;2023-03-01T00:16:54;14.03;;;9.17;;
14060;SDS011;7105;43.616;1.434;2023-03-01T00:19:20;15.87;;;9.83;;
14060;SDS011;7105;43.616;1.434;2023-03-01T00:21:47;15.90;;;10.67;;
14060;SDS011;7105;43.616;1.434;2023-03-01T00:24:13;12.40;;;9.93;;
14060;SDS011;7105;43.616;1.434;2023-03-01T00:26:39;14.97;;;9.83;;
14060;SDS011;7105;43.616;1.434;2023-03-01T00:29:05;15.53;;;10.17;;
14060;SDS011;7105;43.616;1.434;2023-03-01T00:31:32;16.07;;;10.80;;
14060;SDS011;7105;43.616;1.434;2023-03-01T00:34:00;14.57;;;10.17;;
14060;SDS011;7105;43.616;1.434;2023-03-01T00:36:30;15.03;;;10.03;;
14060;SDS011;7105;43.616;1.434;2023-03-01T00:38:58;15.57;;;10.40;;
14060;SDS011;7105;43.616;1.434;2023-03-01T00:41:24;15.70;;;10.83;;
14060;SDS011;7105;43.616;1.434;2023-03-01T00:43:53;16.17;;;10.70;;
14060;SDS011;7105;43.616;1.434;2023-03-01T00:46:20;14.87;;;10.37;;
14060;SDS011;7105;43.616;1.434;2023-03-01T00:48:50;15.27;;;10.70;;
14060;SDS011;7105;43.616;1.434;2023-03-01T00:51:20;13.83;;;10.17;;
14060;SDS011;7105;43.616;1.434;2023-03-01T00:53:54;13.93;;;9.73;;
14060;SDS011;7105;43.616;1.434;2023-03-01T00:56:21;16.00;;;10.67;;
14060;SDS011;7105;43.616;1.434;2023-03-01T00:58:48;15.03;;;10.23;;
14060;SDS011;7105;43.616;1.434;2023-03-01T01:01:18;18.60;;;10.43;;
14060;SDS011;7105;43.616;1.434;2023-03-01T01:03:51;18.80;;;12.60;;
14060;SDS011;7105;43.616;1.434;2023-03-01T01:08:48;19.43;;;12.23;;
14060;SDS011;7105;43.616;1.434;2023-03-01T01:11:15;19.43;;;11.27;;
14060;SDS011;7105;43.616;1.434;2023-03-01T01:13:41;16.80;;;11.20;;
14060;SDS011;7105;43.616;1.434;2023-03-01T01:16:08;16.23;;;10.97;;
14060;SDS011;7105;43.616;1.434;2023-03-01T01:18:34;16.67;;;11.27;;
14060;SDS011;7105;43.616;1.434;2023-03-01T01:21:04;15.30;;;11.03;;
14060;SDS011;7105;43.616;1.434;2023-03-01T01:23:31;16.47;;;11.40;;
14060;SDS011;7105;43.616;1.434;2023-03-01T01:25:57;16.20;;;10.90;;
14060;SDS011;7105;43.616;1.434;2023-03-01T01:28:28;16.97;;;11.50;;
14060;SDS011;7105;43.616;1.434;2023-03-01T01:30:54;14.13;;;9.80;;
14060;SDS011;7105;43.616;1.434;2023-03-01T01:33:19;13.53;;;9.83;;
14060;SDS011;7105;43.616;1.434;2023-03-01T01:35:45;15.60;;;10.90;;
14060;SDS011;7105;43.616;1.434;2023-03-01T01:38:11;18.67;;;11.87;;
14060;SDS011;7105;43.616;1.434;2023-03-01T01:40:42;16.83;;;11.77;;
14060;SDS011;7105;43.616;1.434;2023-03-01T01:43:19;19.00;;;11.67;;
14060;SDS011;7105;43.616;1.434;2023-03-01T01:45:47;16.70;;;10.60;;
14060;SDS011;7105;43.616;1.434;2023-03-01T01:48:16;15.70;;;10.60;;
14060;SDS011;7105;43.616;1.434;2023-03-01T01:50:49;14.97;;;9.73;;
14060;SDS011;7105;43.616;1.434;2023-03-01T01:53:24;20.23;;;11.80;;
14060;SDS011;7105;43.616;1.434;2023-03-01T01:55:51;17.23;;;10.93;;
14060;SDS011;7105;43.616;1.434;2023-03-01T01:58:21;20.77;;;12.90;;
14060;SDS011;7105;43.616;1.434;2023-03-01T02:00:49;17.87;;;11.13;;
14060;SDS011;7105;43.616;1.434;2023-03-01T02:03:17;19.20;;;12.67;;
14060;SDS011;7105;43.616;1.434;2023-03-01T02:05:47;18.93;;;11.40;;
14060;SDS011;7105;43.616;1.434;2023-03-01T02:08:25;16.20;;;10.33;;
14060;SDS011;7105;43.616;1.434;2023-03-01T02:10:53;15.17;;;9.23;;
14060;SDS011;7105;43.616;1.434;2023-03-01T02:13:21;13.00;;;9.33;;
14060;SDS011;7105;43.616;1.434;2023-03-01T02:15:49;15.80;;;9.03;;
14060;SDS011;7105;43.616;1.434;2023-03-01T02:18:16;13.77;;;9.13;;
14060;SDS011;7105;43.616;1.434;2023-03-01T02:23:12;18.43;;;11.07;;
14060;SDS011;7105;43.616;1.434;2023-03-01T02:25:50;14.57;;;9.90;;
14060;SDS011;7105;43.616;1.434;2023-03-01T02:28:40;15.57;;;9.83;;
14060;SDS011;7105;43.616;1.434;2023-03-01T02:31:09;18.57;;;10.67;;
14060;SDS011;7105;43.616;1.434;2023-03-01T02:33:56;21.40;;;10.83;;
14060;SDS011;7105;43.616;1.434;2023-03-01T02:36:24;14.87;;;9.07;;
14060;SDS011;7105;43.616;1.434;2023-03-01T02:38:57;14.80;;;8.97;;
14060;SDS011;7105;43.616;1.434;2023-03-01T02:41:24;14.23;;;9.00;;
14060;SDS011;7105;43.616;1.434;2023-03-01T02:43:52;15.13;;;9.63;;
14060;SDS011;7105;43.616;1.434;2023-03-01T02:46:22;15.03;;;9.90;;
14060;SDS011;7105;43.616;1.434;2023-03-01T02:48:50;16.47;;;9.77;;
14060;SDS011;7105;43.616;1.434;2023-03-01T02:52:21;16.47;;;9.00;;
14060;SDS011;7105;43.616;1.434;2023-03-01T02:54:26;14.20;;;7.77;;
14060;SDS011;7105;43.616;1.434;2023-03-01T02:56:56;12.53;;;8.40;;
14060;SDS011;7105;43.616;1.434;2023-03-01T02:59:24;14.33;;;8.17;;
14060;SDS011;7105;43.616;1.434;2023-03-01T03:01:56;13.87;;;8.00;;
14060;SDS011;7105;43.616;1.434;2023-03-01T03:04:21;11.00;;;8.10;;
14060;SDS011;7105;43.616;1.434;2023-03-01T03:06:48;12.47;;;8.60;;
14060;SDS011;7105;43.616;1.434;2023-03-01T03:09:15;12.60;;;8.80;;
14060;SDS011;7105;43.616;1.434;2023-03-01T03:11:41;12.27;;;8.60;;
14060;SDS011;7105;43.616;1.434;2023-03-01T03:14:08;12.93;;;8.20;;
14060;SDS011;7105;43.616;1.434;2023-03-01T03:16:58;11.83;;;8.27;;
14060;SDS011;7105;43.616;1.434;2023-03-01T03:19:23;12.23;;;7.63;;
14060;SDS011;7105;43.616;1.434;2023-03-01T03:21:49;11.43;;;8.03;;
14060;SDS011;7105;43.616;1.434;2023-03-01T03:24:14;13.40;;;8.13;;
14060;SDS011;7105;43.616;1.434;2023-03-01T03:26:40;12.17;;;8.43;;
14060;SDS011;7105;43.616;1.434;2023-03-01T03:29:05;14.43;;;9.30;;
14060;SDS011;7105;43.616;1.434;2023-03-01T03:31:31;12.33;;;8.50;;
14060;SDS011;7105;43.616;1.434;2023-03-01T03:33:57;14.07;;;9.20;;
14060;SDS011;7105;43.616;1.434;2023-03-01T03:36:23;14.00;;;9.47;;
14060;SDS011;7105;43.616;1.434;2023-03-01T03:38:49;14.87;;;9.53;;
14060;SDS011;7105;43.616;1.434;2023-03-01T03:41:16;14.63;;;9.93;;
14060;SDS011;7105;43.616;1.434;2023-03-01T03:43:42;14.10;;;9.53;;
14060;SDS011;7105;43.616;1.434;2023-03-01T03:46:09;15.67;;;10.70;;
14060;SDS011;7105;43.616;1.434;2023-03-01T03:48:37;15.60;;;10.03;;
14060;SDS011;7105;43.616;1.434;2023-03-01T03:51:09;13.77;;;9.77;;
14060;SDS011;7105;43.616;1.434;2023-03-01T03:53:39;16.23;;;9.63;;
14060;SDS011;7105;43.616;1.434;2023-03-01T03:56:05;15.03;;;10.37;;
14060;SDS011;7105;43.616;1.434;2023-03-01T03:58:32;16.83;;;9.83;;
14060;SDS011;7105;43.616;1.434;2023-03-01T04:00:58;16.73;;;11.07;;
14060;SDS011;7105;43.616;1.434;2023-03-01T04:03:27;16.93;;;11.17;;
14060;SDS011;7105;43.616;1.434;2023-03-01T04:05:56;14.63;;;10.53;;
14060;SDS011;7105;43.616;1.434;2023-03-01T04:08:26;15.63;;;10.57;;
14060;SDS011;7105;43.616;1.434;2023-03-01T04:10:56;18.53;;;10.77;;
14060;SDS011;7105;43.616;1.434;2023-03-01T04:13:24;16.60;;;11.53;;
14060;SDS011;7105;43.616;1.434;2023-03-01T04:15:53;17.97;;;11.40;;
14060;SDS011;7105;43.616;1.434;2023-03-01T04:18:20;18.97;;;12.07;;
14060;SDS011;7105;43.616;1.434;2023-03-01T04:20:48;19.90;;;11.63;;
14060;SDS011;7105;43.616;1.434;2023-03-01T04:23:15;19.50;;;12.83;;
14060;SDS011;7105;43.616;1.434;2023-03-01T04:28:19;19.60;;;12.63;;
14060;SDS011;7105;43.616;1.434;2023-03-01T04:30:54;19.03;;;12.23;;
14060;SDS011;7105;43.616;1.434;2023-03-01T04:33:22;19.73;;;11.90;;
14060;SDS011;7105;43.616;1.434;2023-03-01T04:35:48;18.20;;;11.33;;
14060;SDS011;7105;43.616;1.434;2023-03-01T04:38:15;21.17;;;12.33;;
14060;SDS011;7105;43.616;1.434;2023-03-01T04:40:41;20.07;;;11.57;;
14060;SDS011;7105;43.616;1.434;2023-03-01T04:43:08;20.73;;;11.33;;
14060;SDS011;7105;43.616;1.434;2023-03-01T04:45:35;18.80;;;11.83;;
14060;SDS011;7105;43.616;1.434;2023-03-01T04:48:01;16.67;;;11.97;;
14060;SDS011;7105;43.616;1.434;2023-03-01T04:50:28;19.30;;;11.93;;
14060;SDS011;7105;43.616;1.434;2023-03-01T04:52:54;19.70;;;11.93;;
14060;SDS011;7105;43.616;1.434;2023-03-01T04:55:23;19.07;;;12.07;;
14060;SDS011;7105;43.616;1.434;2023-03-01T04:57:52;20.27;;;12.70;;
14060;SDS011;7105;43.616;1.434;2023-03-01T05:00:19;18.37;;;12.03;;
14060;SDS011;7105;43.616;1.434;2023-03-01T05:02:57;18.33;;;11.63;;
14060;SDS011;7105;43.616;1.434;2023-03-01T05:05:26;19.20;;;12.57;;
14060;SDS011;7105;43.616;1.434;2023-03-01T05:07:58;18.63;;;12.23;;
14060;SDS011;7105;43.616;1.434;2023-03-01T05:10:28;20.27;;;12.07;;
14060;SDS011;7105;43.616;1.434;2023-03-01T05:12:55;17.87;;;11.27;;
14060;SDS011;7105;43.616;1.434;2023-03-01T05:15:22;19.57;;;12.50;;
14060;SDS011;7105;43.616;1.434;2023-03-01T05:17:53;19.27;;;12.07;;
14060;SDS011;7105;43.616;1.434;2023-03-01T05:20:20;20.90;;;12.70;;
14060;SDS011;7105;43.616;1.434;2023-03-01T05:22:49;18.60;;;12.50;;
14060;SDS011;7105;43.616;1.434;2023-03-01T05:25:16;20.97;;;12.53;;
14060;SDS011;7105;43.616;1.434;2023-03-01T05:27:42;19.40;;;12.07;;
14060;SDS011;7105;43.616;1.434;2023-03-01T05:30:08;16.80;;;12.00;;
14060;SDS011;7105;43.616;1.434;2023-03-01T05:32:44;19.60;;;12.53;;
14060;SDS011;7105;43.616;1.434;2023-03-01T05:35:15;20.67;;;11.83;;
14060;SDS011;7105;43.616;1.434;2023-03-01T05:37:43;19.30;;;11.70;;
14060;SDS011;7105;43.616;1.434;2023-03-01T05:40:10;18.83;;;11.83;;
14060;SDS011;7105;43.616;1.434;2023-03-01T05:42:50;19.83;;;12.37;;
14060;SDS011;7105;43.616;1.434;2023-03-01T05:45:21;18.37;;;11.43;;
14060;SDS011;7105;43.616;1.434;2023-03-01T05:47:49;18.70;;;11.93;;
14060;SDS011;7105;43.616;1.434;2023-03-01T05:50:20;21.97;;;12.43;;
14060;SDS011;7105;43.616;1.434;2023-03-01T05:52:47;18.37;;;11.33;;
14060;SDS011;7105;43.616;1.434;2023-03-01T05:55:21;23.27;;;12.67;;
14060;SDS011;7105;43.616;1.434;2023-03-01T05:57:47;19.13;;;12.03;;
14060;SDS011;7105;43.616;1.434;2023-03-01T06:00:14;18.50;;;11.03;;
14060;SDS011;7105;43.616;1.434;2023-03-01T06:02:41;21.77;;;12.23;;
14060;SDS011;7105;43.616;1.434;2023-03-01T06:05:07;18.37;;;12.33;;
14060;SDS011;7105;43.616;1.434;2023-03-01T06:07:35;18.10;;;11.97;;
14060;SDS011;7105;43.616;1.434;2023-03-01T06:10:01;21.60;;;13.20;;
14060;SDS011;7105;43.616;1.434;2023-03-01T06:12:31;19.17;;;12.50;;
14060;SDS011;7105;43.616;1.434;2023-03-01T06:15:01;21.77;;;13.07;;
14060;SDS011;7105;43.616;1.434;2023-03-01T06:17:31;20.17;;;12.40;;
14060;SDS011;7105;43.616;1.434;2023-03-01T06:20:02;21.10;;;11.47;;
14060;SDS011;7105;43.616;1.434;2023-03-01T06:22:34;19.63;;;12.33;;
14060;SDS011;7105;43.616;1.434;2023-03-01T06:25:00;19.20;;;11.90;;
14060;SDS011;7105;43.616;1.434;2023-03-01T06:27:25;19.17;;;12.60;;
14060;SDS011;7105;43.616;1.434;2023-03-01T06:29:51;19.93;;;11.50;;
14060;SDS011;7105;43.616;1.434;2023-03-01T06:32:17;18.97;;;12.67;;
14060;SDS011;7105;43.616;1.434;2023-03-01T06:34:43;19.60;;;12.57;;
14060;SDS011;7105;43.616;1.434;2023-03-01T06:37:09;19.73;;;11.87;;
14060;SDS011;7105;43.616;1.434;2023-03-01T06:39:34;22.80;;;12.70;;
14060;SDS011;7105;43.616;1.434;2023-03-01T06:42:03;19.50;;;12.57;;
14060;SDS011;7105;43.616;1.434;2023-03-01T06:44:29;22.57;;;12.27;;
14060;SDS011;7105;43.616;1.434;2023-03-01T06:46:54;28.93;;;13.73;;
14060;SDS011;7105;43.616;1.434;2023-03-01T06:49:20;21.23;;;12.87;;
14060;SDS011;7105;43.616;1.434;2023-03-01T06:51:46;22.17;;;12.80;;
14060;SDS011;7105;43.616;1.434;2023-03-01T06:54:11;19.80;;;12.37;;
14060;SDS011;7105;43.616;1.434;2023-03-01T06:56:37;22.23;;;13.00;;
14060;SDS011;7105;43.616;1.434;2023-03-01T06:59:03;18.50;;;12.07;;
14060;SDS011;7105;43.616;1.434;2023-03-01T07:01:29;18.20;;;13.40;;
14060;SDS011;7105;43.616;1.434;2023-03-01T07:03:55;19.57;;;11.93;;
14060;SDS011;7105;43.616;1.434;2023-03-01T07:06:21;19.50;;;11.40;;
14060;SDS011;7105;43.616;1.434;2023-03-01T07:08:47;21.77;;;12.10;;
14060;SDS011;7105;43.616;1.434;2023-03-01T07:11:13;21.77;;;11.97;;
14060;SDS011;7105;43.616;1.434;2023-03-01T07:13:39;20.97;;;12.00;;
14060;SDS011;7105;43.616;1.434;2023-03-01T07:16:05;21.30;;;11.57;;
14060;SDS011;7105;43.616;1.434;2023-03-01T07:18:31;17.47;;;12.00;;
14060;SDS011;7105;43.616;1.434;2023-03-01T07:20:57;23.97;;;11.77;;
14060;SDS011;7105;43.616;1.434;2023-03-01T07:23:22;20.97;;;13.93;;
14060;SDS011;7105;43.616;1.434;2023-03-01T07:25:52;16.13;;;10.80;;
14060;SDS011;7105;43.616;1.434;2023-03-01T07:28:18;20.00;;;12.87;;
14060;SDS011;7105;43.616;1.434;2023-03-01T07:30:44;17.30;;;10.57;;
14060;SDS011;7105;43.616;1.434;2023-03-01T07:33:10;20.50;;;12.00;;
14060;SDS011;7105;43.616;1.434;2023-03-01T07:35:35;15.50;;;9.93;;
14060;SDS011;7105;43.616;1.434;2023-03-01T07:38:01;18.93;;;11.43;;
14060;SDS011;7105;43.616;1.434;2023-03-01T07:40:27;17.67;;;11.20;;
14060;SDS011;7105;43.616;1.434;2023-03-01T07:42:56;19.07;;;11.80;;
14060;SDS011;7105;43.616;1.434;2023-03-01T07:45:23;16.47;;;11.13;;
14060;SDS011;7105;43.616;1.434;2023-03-01T07:47:50;20.60;;;11.37;;
14060;SDS011;7105;43.616;1.434;2023-03-01T07:50:17;21.03;;;12.63;;
14060;SDS011;7105;43.616;1.434;2023-03-01T07:52:45;20.00;;;10.73;;
14060;SDS011;7105;43.616;1.434;2023-03-01T07:55:12;14.57;;;10.67;;
14060;SDS011;7105;43.616;1.434;2023-03-01T07:57:38;16.30;;;11.13;;
14060;SDS011;7105;43.616;1.434;2023-03-01T08:00:04;22.40;;;11.63;;
14060;SDS011;7105;43.616;1.434;2023-03-01T08:02:30;17.17;;;11.43;;
14060;SDS011;7105;43.616;1.434;2023-03-01T08:04:56;16.47;;;11.50;;
14060;SDS011;7105;43.616;1.434;2023-03-01T08:07:22;15.73;;;12.10;;
14060;SDS011;7105;43.616;1.434;2023-03-01T08:09:48;14.73;;;11.17;;
14060;SDS011;7105;43.616;1.434;2023-03-01T08:12:14;14.07;;;10.97;;
14060;SDS011;7105;43.616;1.434;2023-03-01T08:14:41;13.67;;;11.87;;
14060;SDS011;7105;43.616;1.434;2023-03-01T08:17:07;16.37;;;11.77;;
14060;SDS011;7105;43.616;1.434;2023-03-01T08:19:33;15.87;;;11.93;;
14060;SDS011;7105;43.616;1.434;2023-03-01T08:22:00;14.40;;;11.70;;
14060;SDS011;7105;43.616;1.434;2023-03-01T08:24:26;15.50;;;11.43;;
14060;SDS011;7105;43.616;1.434;2023-03-01T08:26:52;13.80;;;11.90;;
14060;SDS011;7105;43.616;1.434;2023-03-01T08:29:18;15.70;;;12.60;;
14060;SDS011;7105;43.616;1.434;2023-03-01T08:31:44;14.40;;;12.10;;
14060;SDS011;7105;43.616;1.434;2023-03-01T08:34:11;14.10;;;12.53;;
14060;SDS011;7105;43.616;1.434;2023-03-01T08:36:41;15.80;;;12.13;;
14060;SDS011;7105;43.616;1.434;2023-03-01T08:39:10;13.77;;;11.60;;
14060;SDS011;7105;43.616;1.434;2023-03-01T08:41:38;13.87;;;12.37;;
14060;SDS011;7105;43.616;1.434;2023-03-01T08:44:04;13.50;;;11.93;;
14060;SDS011;7105;43.616;1.434;2023-03-01T08:46:31;13.20;;;11.80;;
14060;SDS011;7105;43.616;1.434;2023-03-01T08:49:10;13.40;;;11.97;;
14060;SDS011;7105;43.616;1.434;2023-03-01T08:51:39;13.90;;;12.00;;
14060;SDS011;7105;43.616;1.434;2023-03-01T08:54:06;12.97;;;11.63;;
14060;SDS011;7105;43.616;1.434;2023-03-01T08:56:35;15.03;;;12.30;;
14060;SDS011;7105;43.616;1.434;2023-03-01T08:59:01;14.43;;;12.27;;
14060;SDS011;7105;43.616;1.434;2023-03-01T09:01:27;13.33;;;11.93;;
14060;SDS011;7105;43.616;1.434;2023-03-01T09:03:53;13.97;;;12.60;;
14060;SDS011;7105;43.616;1.434;2023-03-01T09:06:19;13.37;;;11.57;;
14060;SDS011;7105;43.616;1.434;2023-03-01T09:08:45;16.43;;;12.77;;
14060;SDS011;7105;43.616;1.434;2023-03-01T09:11:13;13.60;;;11.23;;
14060;SDS011;7105;43.616;1.434;2023-03-01T09:13:41;12.77;;;11.57;;
14060;SDS011;7105;43.616;1.434;2023-03-01T09:16:08;12.50;;;11.30;;
14060;SDS011;7105;43.616;1.434;2023-03-01T09:18:35;12.57;;;11.03;;
14060;SDS011;7105;43.616;1.434;2023-03-01T09:21:04;12.20;;;11.00;;
14060;SDS011;7105;43.616;1.434;2023-03-01T09:23:36;11.67;;;10.30;;
14060;SDS011;7105;43.616;1.434;2023-03-01T09:26:04;10.47;;;9.17;;
14060;SDS011;7105;43.616;1.434;2023-03-01T09:28:34;9.63;;;8.57;;
14060;SDS011;7105;43.616;1.434;2023-03-01T09:31:01;11.83;;;9.90;;
14060;SDS011;7105;43.616;1.434;2023-03-01T09:33:28;11.70;;;9.30;;
14060;SDS011;7105;43.616;1.434;2023-03-01T09:36:02;11.03;;;9.77;;
14060;SDS011;7105;43.616;1.434;2023-03-01T09:38:30;12.97;;;9.40;;
14060;SDS011;7105;43.616;1.434;2023-03-01T09:40:56;11.10;;;9.60;;
14060;SDS011;7105;43.616;1.434;2023-03-01T09:43:26;11.30;;;9.80;;
14060;SDS011;7105;43.616;1.434;2023-03-01T09:46:09;10.53;;;9.43;;
14060;SDS011;7105;43.616;1.434;2023-03-01T09:48:43;13.03;;;11.03;;
14060;SDS011;7105;43.616;1.434;2023-03-01T09:51:17;12.90;;;9.43;;
14060;SDS011;7105;43.616;1.434;2023-03-01T09:53:47;10.23;;;9.23;;
14060;SDS011;7105;43.616;1.434;2023-03-01T09:56:16;10.77;;;9.33;;
14060;SDS011;7105;43.616;1.434;2023-03-01T09:58:59;10.67;;;8.83;;
14060;SDS011;7105;43.616;1.434;2023-03-01T10:01:31;10.93;;;7.63;;
14060;SDS011;7105;43.616;1.434;2023-03-01T10:04:05;9.87;;;8.30;;
14060;SDS011;7105;43.616;1.434;2023-03-01T10:06:35;11.50;;;8.47;;
14060;SDS011;7105;43.616;1.434;2023-03-01T10:09:02;10.13;;;8.93;;
14060;SDS011;7105;43.616;1.434;2023-03-01T10:11:38;10.73;;;8.13;;
14060;SDS011;7105;43.616;1.434;2023-03-01T10:16:55;9.00;;;7.53;;
14060;SDS011;7105;43.616;1.434;2023-03-01T10:19:36;6.90;;;5.50;;
14060;SDS011;7105;43.616;1.434;2023-03-01T10:22:10;9.33;;;6.47;;
14060;SDS011;7105;43.616;1.434;2023-03-01T10:24:53;9.63;;;8.00;;
14060;SDS011;7105;43.616;1.434;2023-03-01T10:27:23;12.10;;;8.20;;
14060;SDS011;7105;43.616;1.434;2023-03-01T10:32:36;12.27;;;8.27;;
14060;SDS011;7105;43.616;1.434;2023-03-01T10:35:14;10.47;;;7.67;;
14060;SDS011;7105;43.616;1.434;2023-03-01T10:40:29;9.53;;;6.80;;
14060;SDS011;7105;43.616;1.434;2023-03-01T10:42:59;7.87;;;6.67;;
14060;SDS011;7105;43.616;1.434;2023-03-01T10:50:44;9.00;;;6.27;;
14060;SDS011;7105;43.616;1.434;2023-03-01T10:55:59;11.50;;;7.93;;
14060;SDS011;7105;43.616;1.434;2023-03-01T10:59:02;8.30;;;6.30;;
14060;SDS011;7105;43.616;1.434;2023-03-01T11:01:30;8.97;;;7.13;;
14060;SDS011;7105;43.616;1.434;2023-03-01T11:06:31;7.13;;;4.43;;
14060;SDS011;7105;43.616;1.434;2023-03-01T11:09:01;9.73;;;7.10;;
14060;SDS011;7105;43.616;1.434;2023-03-01T11:11:39;12.30;;;6.93;;
14060;SDS011;7105;43.616;1.434;2023-03-01T11:14:18;10.43;;;7.40;;
14060;SDS011;7105;43.616;1.434;2023-03-01T11:16:46;9.43;;;8.20;;
14060;SDS011;7105;43.616;1.434;2023-03-01T11:19:15;11.90;;;7.50;;
14060;SDS011;7105;43.616;1.434;2023-03-01T11:24:15;10.03;;;7.73;;
14060;SDS011;7105;43.616;1.434;2023-03-01T11:26:49;10.30;;;8.27;;
14060;SDS011;7105;43.616;1.434;2023-03-01T11:29:21;10.87;;;8.83;;
14060;SDS011;7105;43.616;1.434;2023-03-01T11:32:16;9.87;;;8.17;;
14060;SDS011;7105;43.616;1.434;2023-03-01T11:34:48;9.13;;;6.43;;
14060;SDS011;7105;43.616;1.434;2023-03-01T11:40:25;8.73;;;6.67;;
14060;SDS011;7105;43.616;1.434;2023-03-01T11:52:04;6.27;;;5.20;;
14060;SDS011;7105;43.616;1.434;2023-03-01T11:57:04;6.63;;;5.43;;
14060;SDS011;7105;43.616;1.434;2023-03-01T12:05:02;6.53;;;5.57;;
14060;SDS011;7105;43.616;1.434;2023-03-01T12:29:40;9.67;;;6.57;;
14060;SDS011;7105;43.616;1.434;2023-03-01T12:32:18;8.93;;;6.80;;
14060;SDS011;7105;43.616;1.434;2023-03-01T12:35:03;8.57;;;6.63;;
14060;SDS011;7105;43.616;1.434;2023-03-01T12:38:07;7.97;;;5.93;;
14060;SDS011;7105;43.616;1.434;2023-03-01T12:46:46;6.80;;;6.10;;
14060;SDS011;7105;43.616;1.434;2023-03-01T12:49:53;8.17;;;6.50;;
14060;SDS011;7105;43.616;1.434;2023-03-01T12:52:25;7.87;;;6.83;;
14060;SDS011;7105;43.616;1.434;2023-03-01T12:54:56;6.90;;;5.17;;
14060;SDS011;7105;43.616;1.434;2023-03-01T13:00:15;5.77;;;4.10;;
14060;SDS011;7105;43.616;1.434;2023-03-01T13:08:01;9.33;;;5.43;;
14060;SDS011;7105;43.616;1.434;2023-03-01T13:17:52;6.37;;;4.57;;
14060;SDS011;7105;43.616;1.434;2023-03-01T13:20:24;7.67;;;6.23;;
14060;SDS011;7105;43.616;1.434;2023-03-01T13:23:00;6.97;;;5.50;;
14060;SDS011;7105;43.616;1.434;2023-03-01T13:25:31;10.20;;;6.57;;
14060;SDS011;7105;43.616;1.434;2023-03-01T13:31:03;6.80;;;6.03;;
14060;SDS011;7105;43.616;1.434;2023-03-01T13:35:58;7.33;;;6.57;;
14060;SDS011;7105;43.616;1.434;2023-03-01T13:41:16;8.57;;;6.40;;
14060;SDS011;7105;43.616;1.434;2023-03-01T13:44:02;8.00;;;5.97;;
14060;SDS011;7105;43.616;1.434;2023-03-01T13:46:46;7.40;;;5.27;;
14060;SDS011;7105;43.616;1.434;2023-03-01T13:49:14;6.83;;;6.03;;
14060;SDS011;7105;43.616;1.434;2023-03-01T13:51:41;5.60;;;4.30;;
14060;SDS011;7105;43.616;1.434;2023-03-01T13:54:12;4.87;;;3.73;;
14060;SDS011;7105;43.616;1.434;2023-03-01T13:56:40;6.63;;;4.33;;
14060;SDS011;7105;43.616;1.434;2023-03-01T14:01:40;6.53;;;5.47;;
14060;SDS011;7105;43.616;1.434;2023-03-01T14:04:22;8.40;;;6.50;;
14060;SDS011;7105;43.616;1.434;2023-03-01T14:06:48;7.70;;;6.53;;
14060;SDS011;7105;43.616;1.434;2023-03-01T14:09:24;10.27;;;7.03;;
14060;SDS011;7105;43.616;1.434;2023-03-01T14:15:15;9.33;;;6.63;;
14060;SDS011;7105;43.616;1.434;2023-03-01T14:18:13;8.80;;;6.40;;
14060;SDS011;7105;43.616;1.434;2023-03-01T14:20:58;8.00;;;6.83;;
14060;SDS011;7105;43.616;1.434;2023-03-01T14:23:24;9.20;;;6.63;;
14060;SDS011;7105;43.616;1.434;2023-03-01T14:25:55;7.73;;;4.13;;
14060;SDS011;7105;43.616;1.434;2023-03-01T14:28:27;7.00;;;6.13;;
14060;SDS011;7105;43.616;1.434;2023-03-01T14:31:02;8.63;;;6.97;;
14060;SDS011;7105;43.616;1.434;2023-03-01T14:35:59;7.23;;;6.50;;
14060;SDS011;7105;43.616;1.434;2023-03-01T14:38:30;15.67;;;7.87;;
14060;SDS011;7105;43.616;1.434;2023-03-01T14:41:03;6.30;;;4.83;;
14060;SDS011;7105;43.616;1.434;2023-03-01T14:43:36;6.77;;;5.43;;
14060;SDS011;7105;43.616;1.434;2023-03-01T14:46:05;9.00;;;5.77;;
14060;SDS011;7105;43.616;1.434;2023-03-01T14:48:31;7.43;;;6.47;;
14060;SDS011;7105;43.616;1.434;2023-03-01T14:50:57;5.17;;;4.20;;
14060;SDS011;7105;43.616;1.434;2023-03-01T14:53:26;7.43;;;6.73;;
14060;SDS011;7105;43.616;1.434;2023-03-01T14:56:01;8.57;;;7.10;;
14060;SDS011;7105;43.616;1.434;2023-03-01T14:58:31;9.20;;;7.27;;
14060;SDS011;7105;43.616;1.434;2023-03-01T15:01:01;7.10;;;5.20;;
14060;SDS011;7105;43.616;1.434;2023-03-01T15:03:35;8.27;;;6.20;;
14060;SDS011;7105;43.616;1.434;2023-03-01T15:06:05;6.90;;;6.20;;
14060;SDS011;7105;43.616;1.434;2023-03-01T15:08:33;7.20;;;6.27;;
14060;SDS011;7105;43.616;1.434;2023-03-01T15:11:02;7.77;;;6.03;;
14060;SDS011;7105;43.616;1.434;2023-03-01T15:13:31;6.93;;;5.93;;
14060;SDS011;7105;43.616;1.434;2023-03-01T15:16:02;6.13;;;4.70;;
14060;SDS011;7105;43.616;1.434;2023-03-01T15:18:32;6.93;;;5.20;;
14060;SDS011;7105;43.616;1.434;2023-03-01T15:21:09;8.60;;;6.17;;
14060;SDS011;7105;43.616;1.434;2023-03-01T15:23:50;7.07;;;5.77;;
14060;SDS011;7105;43.616;1.434;2023-03-01T15:26:31;7.30;;;5.23;;
14060;SDS011;7105;43.616;1.434;2023-03-01T15:29:02;7.17;;;6.27;;
14060;SDS011;7105;43.616;1.434;2023-03-01T15:31:32;8.63;;;6.50;;
14060;SDS011;7105;43.616;1.434;2023-03-01T15:34:07;8.40;;;6.10;;
14060;SDS011;7105;43.616;1.434;2023-03-01T15:36:46;8.27;;;6.80;;
14060;SDS011;7105;43.616;1.434;2023-03-01T15:45:37;7.77;;;6.93;;
14060;SDS011;7105;43.616;1.434;2023-03-01T15:47:40;11.70;;;6.17;;
14060;SDS011;7105;43.616;1.434;2023-03-01T15:50:17;6.63;;;5.73;;
14060;SDS011;7105;43.616;1.434;2023-03-01T15:52:47;9.47;;;7.17;;
14060;SDS011;7105;43.616;1.434;2023-03-01T15:55:35;6.83;;;6.00;;
14060;SDS011;7105;43.616;1.434;2023-03-01T15:58:02;8.93;;;6.37;;
14060;SDS011;7105;43.616;1.434;2023-03-01T16:00:43;7.73;;;6.20;;
14060;SDS011;7105;43.616;1.434;2023-03-01T16:03:10;7.13;;;6.03;;
14060;SDS011;7105;43.616;1.434;2023-03-01T16:05:37;7.20;;;6.50;;
14060;SDS011;7105;43.616;1.434;2023-03-01T16:08:03;8.20;;;6.47;;
14060;SDS011;7105;43.616;1.434;2023-03-01T16:10:31;6.40;;;5.23;;
14060;SDS011;7105;43.616;1.434;2023-03-01T16:12:58;6.90;;;6.00;;
14060;SDS011;7105;43.616;1.434;2023-03-01T16:15:28;6.97;;;5.40;;
14060;SDS011;7105;43.616;1.434;2023-03-01T16:17:56;8.77;;;5.77;;
14060;SDS011;7105;43.616;1.434;2023-03-01T16:20:26;8.93;;;6.07;;
14060;SDS011;7105;43.616;1.434;2023-03-01T16:22:52;7.97;;;7.17;;
14060;SDS011;7105;43.616;1.434;2023-03-01T16:25:19;5.20;;;3.97;;
14060;SDS011;7105;43.616;1.434;2023-03-01T16:27:47;7.60;;;6.50;;
14060;SDS011;7105;43.616;1.434;2023-03-01T16:30:14;8.33;;;7.40;;
14060;SDS011;7105;43.616;1.434;2023-03-01T16:32:42;7.93;;;7.07;;
14060;SDS011;7105;43.616;1.434;2023-03-01T16:35:09;9.17;;;7.37;;
14060;SDS011;7105;43.616;1.434;2023-03-01T16:37:37;8.93;;;7.10;;
14060;SDS011;7105;43.616;1.434;2023-03-01T16:40:04;7.63;;;5.93;;
14060;SDS011;7105;43.616;1.434;2023-03-01T16:42:35;8.67;;;7.37;;
14060;SDS011;7105;43.616;1.434;2023-03-01T16:45:02;10.80;;;7.27;;
14060;SDS011;7105;43.616;1.434;2023-03-01T16:47:29;8.73;;;7.10;;
14060;SDS011;7105;43.616;1.434;2023-03-01T16:49:55;8.53;;;7.63;;
14060;SDS011;7105;43.616;1.434;2023-03-01T16:52:21;8.77;;;7.00;;
14060;SDS011;7105;43.616;1.434;2023-03-01T16:54:47;8.83;;;7.27;;
14060;SDS011;7105;43.616;1.434;2023-03-01T16:57:13;9.10;;;7.20;;